Terminal Aerodrome Forecast
Issued by NWS Pittsburgh, PA

Current Version | Previous Version | Text Only | Print | Product List | Glossary Off
Versions: 1 2 3 4 5 6 7 8 9 10 11 12 13 14 15 16 17 18 19 20 21 22 23 24

000
FTUS41 KPBZ 221730
TAFPIT
TAF
KPIT 221730Z 2218/2324 34010G20KT P6SM SKC
     FM222300 VRB05KT P6SM SKC
     FM231500 14005KT P6SM FEW140=

USA.gov is the U.S. government's official web portal to all federal, state and local government web resources and services.